sensor_id;sensor_type;location;lat;lon;timestamp;pressure;altitude;pressure_sealevel;temperature;humidity
40708;BME280;26392;42.696;23.350;2022-10-16T00:00:36;95959.75;;;8.81;98.31
40708;BME280;26392;42.696;23.350;2022-10-16T00:03:03;95959.28;;;8.84;97.80
40708;BME280;26392;42.696;23.350;2022-10-16T00:05:29;95966.38;;;8.85;98.16
40708;BME280;26392;42.696;23.350;2022-10-16T00:07:55;95969.94;;;8.85;97.99
40708;BME280;26392;42.696;23.350;2022-10-16T00:10:20;95966.16;;;8.86;97.26
40708;BME280;26392;42.696;23.350;2022-10-16T00:12:46;95966.97;;;8.87;97.42
40708;BME280;26392;42.696;23.350;2022-10-16T00:15:12;95970.91;;;8.91;97.50
40708;BME280;26392;42.696;23.350;2022-10-16T00:17:37;95973.63;;;8.91;96.96
40708;BME280;26392;42.696;23.350;2022-10-16T00:20:03;95984.81;;;8.83;97.45
40708;BME280;26392;42.696;23.350;2022-10-16T00:22:29;95980.41;;;8.82;97.24
40708;BME280;26392;42.696;23.350;2022-10-16T00:24:54;95980.56;;;8.87;97.53
40708;BME280;26392;42.696;23.350;2022-10-16T00:27:19;95979.13;;;8.84;97.83
40708;BME280;26392;42.696;23.350;2022-10-16T00:29:48;95990.16;;;8.71;98.64
40708;BME280;26392;42.696;23.350;2022-10-16T00:32:14;95996.44;;;8.71;98.75
40708;BME280;26392;42.696;23.350;2022-10-16T00:34:39;95989.09;;;8.72;98.64
40708;BME280;26392;42.696;23.350;2022-10-16T00:37:05;95999.59;;;8.68;98.80
40708;BME280;26392;42.696;23.350;2022-10-16T00:39:30;96004.06;;;8.63;98.74
40708;BME280;26392;42.696;23.350;2022-10-16T00:41:56;95999.22;;;8.65;98.53
40708;BME280;26392;42.696;23.350;2022-10-16T00:44:42;95992.59;;;8.61;99.11
40708;BME280;26392;42.696;23.350;2022-10-16T00:47:15;95992.59;;;8.61;99.44
40708;BME280;26392;42.696;23.350;2022-10-16T00:49:41;95993.03;;;8.58;99.47
40708;BME280;26392;42.696;23.350;2022-10-16T00:52:06;95987.19;;;8.54;99.44
40708;BME280;26392;42.696;23.350;2022-10-16T00:54:33;95987.59;;;8.58;99.23
40708;BME280;26392;42.696;23.350;2022-10-16T00:57:01;95986.78;;;8.57;99.34
40708;BME280;26392;42.696;23.350;2022-10-16T00:59:39;95986.94;;;8.37;99.38
40708;BME280;26392;42.696;23.350;2022-10-16T01:02:07;96001.50;;;8.24;100.00
40708;BME280;26392;42.696;23.350;2022-10-16T01:04:36;95992.28;;;8.25;100.00
40708;BME280;26392;42.696;23.350;2022-10-16T01:12:32;96007.38;;;8.21;100.00
40708;BME280;26392;42.696;23.350;2022-10-16T01:15:14;96006.09;;;8.24;99.78
40708;BME280;26392;42.696;23.350;2022-10-16T01:17:48;96000.22;;;8.27;100.00
40708;BME280;26392;42.696;23.350;2022-10-16T01:25:22;95989.19;;;8.22;99.67
40708;BME280;26392;42.696;23.350;2022-10-16T01:27:51;95982.69;;;8.23;99.84
40708;BME280;26392;42.696;23.350;2022-10-16T01:30:21;95990.00;;;8.22;99.88
40708;BME280;26392;42.696;23.350;2022-10-16T01:35:37;95991.69;;;8.23;100.00
40708;BME280;26392;42.696;23.350;2022-10-16T01:38:09;95988.28;;;8.28;100.00
40708;BME280;26392;42.696;23.350;2022-10-16T01:40:39;95990.47;;;8.19;100.00
40708;BME280;26392;42.696;23.350;2022-10-16T01:43:12;95988.56;;;8.20;100.00
40708;BME280;26392;42.696;23.350;2022-10-16T01:45:40;95991.97;;;8.15;100.00
40708;BME280;26392;42.696;23.350;2022-10-16T01:48:07;96004.16;;;8.06;100.00
40708;BME280;26392;42.696;23.350;2022-10-16T01:50:37;96005.22;;;8.05;100.00
40708;BME280;26392;42.696;23.350;2022-10-16T01:53:07;96017.56;;;8.01;100.00
40708;BME280;26392;42.696;23.350;2022-10-16T01:55:39;96008.81;;;7.99;100.00
40708;BME280;26392;42.696;23.350;2022-10-16T01:58:10;96005.03;;;8.00;100.00
40708;BME280;26392;42.696;23.350;2022-10-16T02:00:38;96012.56;;;7.98;100.00
40708;BME280;26392;42.696;23.350;2022-10-16T02:03:05;96010.53;;;7.93;100.00
40708;BME280;26392;42.696;23.350;2022-10-16T02:05:58;96010.53;;;7.93;100.00
40708;BME280;26392;42.696;23.350;2022-10-16T02:08:26;96011.44;;;7.87;100.00
40708;BME280;26392;42.696;23.350;2022-10-16T02:10:55;96020.59;;;7.86;100.00
40708;BME280;26392;42.696;23.350;2022-10-16T02:13:29;96022.50;;;7.85;100.00
40708;BME280;26392;42.696;23.350;2022-10-16T02:15:57;96027.41;;;7.70;100.00
40708;BME280;26392;42.696;23.350;2022-10-16T02:18:23;96022.69;;;7.59;100.00
40708;BME280;26392;42.696;23.350;2022-10-16T02:21:00;96029.41;;;7.50;100.00
40708;BME280;26392;42.696;23.350;2022-10-16T02:23:36;96032.78;;;7.45;100.00
40708;BME280;26392;42.696;23.350;2022-10-16T02:26:13;96032.63;;;7.40;100.00
40708;BME280;26392;42.696;23.350;2022-10-16T02:28:44;96033.06;;;7.37;100.00
40708;BME280;26392;42.696;23.350;2022-10-16T02:31:13;96039.31;;;7.31;100.00
40708;BME280;26392;42.696;23.350;2022-10-16T02:33:42;96039.94;;;7.33;100.00
40708;BME280;26392;42.696;23.350;2022-10-16T02:36:09;96042.91;;;7.25;100.00
40708;BME280;26392;42.696;23.350;2022-10-16T02:38:35;96040.19;;;7.25;100.00
40708;BME280;26392;42.696;23.350;2022-10-16T02:41:01;96037.72;;;7.16;100.00
40708;BME280;26392;42.696;23.350;2022-10-16T02:43:28;96037.78;;;7.10;100.00
40708;BME280;26392;42.696;23.350;2022-10-16T02:45:53;96039.84;;;7.08;100.00
40708;BME280;26392;42.696;23.350;2022-10-16T02:48:19;96046.34;;;7.07;100.00
40708;BME280;26392;42.696;23.350;2022-10-16T02:50:44;96052.81;;;7.06;100.00
40708;BME280;26392;42.696;23.350;2022-10-16T02:53:10;96052.38;;;7.02;100.00
40708;BME280;26392;42.696;23.350;2022-10-16T02:55:35;96056.16;;;6.94;100.00
40708;BME280;26392;42.696;23.350;2022-10-16T02:58:00;96059.94;;;6.93;100.00
40708;BME280;26392;42.696;23.350;2022-10-16T03:00:26;96066.78;;;6.96;100.00
40708;BME280;26392;42.696;23.350;2022-10-16T03:02:51;96058.28;;;6.92;100.00
40708;BME280;26392;42.696;23.350;2022-10-16T03:05:17;96060.97;;;6.92;100.00
40708;BME280;26392;42.696;23.350;2022-10-16T03:07:42;96062.00;;;6.91;100.00
40708;BME280;26392;42.696;23.350;2022-10-16T03:10:08;96054.69;;;6.99;100.00
40708;BME280;26392;42.696;23.350;2022-10-16T03:12:33;96063.03;;;7.04;100.00
40708;BME280;26392;42.696;23.350;2022-10-16T03:14:59;96061.13;;;7.04;100.00
40708;BME280;26392;42.696;23.350;2022-10-16T03:17:25;96061.34;;;7.03;100.00
40708;BME280;26392;42.696;23.350;2022-10-16T03:19:51;96066.59;;;6.91;100.00
40708;BME280;26392;42.696;23.350;2022-10-16T03:22:16;96067.84;;;6.88;100.00
40708;BME280;26392;42.696;23.350;2022-10-16T03:24:42;96063.66;;;6.99;100.00
40708;BME280;26392;42.696;23.350;2022-10-16T03:27:07;96073.03;;;7.03;100.00
40708;BME280;26392;42.696;23.350;2022-10-16T03:29:32;96058.63;;;7.03;100.00
40708;BME280;26392;42.696;23.350;2022-10-16T03:31:59;96072.03;;;6.98;100.00
40708;BME280;26392;42.696;23.350;2022-10-16T03:34:24;96068.94;;;6.81;100.00
40708;BME280;26392;42.696;23.350;2022-10-16T03:36:51;96071.25;;;6.70;100.00
40708;BME280;26392;42.696;23.350;2022-10-16T03:39:16;96068.56;;;6.64;100.00
40708;BME280;26392;42.696;23.350;2022-10-16T03:41:42;96068.78;;;6.62;100.00
40708;BME280;26392;42.696;23.350;2022-10-16T03:44:07;96064.59;;;6.66;100.00
40708;BME280;26392;42.696;23.350;2022-10-16T03:46:32;96070.38;;;6.83;100.00
40708;BME280;26392;42.696;23.350;2022-10-16T03:48:58;96068.75;;;6.76;100.00
40708;BME280;26392;42.696;23.350;2022-10-16T03:51:23;96064.94;;;6.83;100.00
40708;BME280;26392;42.696;23.350;2022-10-16T03:53:49;96066.00;;;6.82;100.00
40708;BME280;26392;42.696;23.350;2022-10-16T03:56:14;96067.50;;;6.71;100.00
40708;BME280;26392;42.696;23.350;2022-10-16T03:58:39;96063.75;;;6.72;100.00
40708;BME280;26392;42.696;23.350;2022-10-16T04:01:05;96058.38;;;6.59;100.00
40708;BME280;26392;42.696;23.350;2022-10-16T04:03:30;96059.81;;;6.62;100.00
40708;BME280;26392;42.696;23.350;2022-10-16T04:05:56;96060.88;;;6.54;100.00
40708;BME280;26392;42.696;23.350;2022-10-16T04:08:22;96057.13;;;6.48;100.00
40708;BME280;26392;42.696;23.350;2022-10-16T04:10:47;96065.88;;;6.50;100.00
40708;BME280;26392;42.696;23.350;2022-10-16T04:13:12;96067.75;;;6.57;100.00
40708;BME280;26392;42.696;23.350;2022-10-16T04:15:38;96066.69;;;6.58;100.00
40708;BME280;26392;42.696;23.350;2022-10-16T04:18:04;96065.88;;;6.57;100.00
40708;BME280;26392;42.696;23.350;2022-10-16T04:20:30;96070.25;;;6.58;100.00
40708;BME280;26392;42.696;23.350;2022-10-16T04:22:56;96068.81;;;6.56;100.00
40708;BME280;26392;42.696;23.350;2022-10-16T04:25:21;96071.72;;;6.47;100.00
40708;BME280;26392;42.696;23.350;2022-10-16T04:27:47;96074.84;;;6.38;100.00
40708;BME280;26392;42.696;23.350;2022-10-16T04:30:13;96074.22;;;6.36;100.00
40708;BME280;26392;42.696;23.350;2022-10-16T04:32:38;96074.66;;;6.39;100.00
40708;BME280;26392;42.696;23.350;2022-10-16T04:35:04;96085.88;;;6.43;100.00
40708;BME280;26392;42.696;23.350;2022-10-16T04:37:30;96078.41;;;6.45;100.00
40708;BME280;26392;42.696;23.350;2022-10-16T04:39:55;96080.03;;;6.46;100.00
40708;BME280;26392;42.696;23.350;2022-10-16T04:42:21;96085.47;;;6.53;100.00
40708;BME280;26392;42.696;23.350;2022-10-16T04:44:46;96088.38;;;6.51;100.00
40708;BME280;26392;42.696;23.350;2022-10-16T04:47:12;96085.47;;;6.53;100.00
40708;BME280;26392;42.696;23.350;2022-10-16T04:49:38;96091.50;;;6.48;100.00
40708;BME280;26392;42.696;23.350;2022-10-16T04:52:04;96101.72;;;6.39;100.00
40708;BME280;26392;42.696;23.350;2022-10-16T04:54:29;96102.16;;;6.36;100.00
40708;BME280;26392;42.696;23.350;2022-10-16T04:56:55;96104.44;;;6.39;100.00
40708;BME280;26392;42.696;23.350;2022-10-16T04:59:21;96110.06;;;6.44;100.00
40708;BME280;26392;42.696;23.350;2022-10-16T05:01:47;96112.94;;;6.49;100.00
40708;BME280;26392;42.696;23.350;2022-10-16T05:04:13;96114.59;;;6.44;100.00
40708;BME280;26392;42.696;23.350;2022-10-16T05:06:40;96119.41;;;6.48;100.00
40708;BME280;26392;42.696;23.350;2022-10-16T05:09:05;96115.22;;;6.59;100.00
40708;BME280;26392;42.696;23.350;2022-10-16T05:11:31;96120.03;;;6.64;100.00
40708;BME280;26392;42.696;23.350;2022-10-16T05:13:56;96116.69;;;6.62;100.00
40708;BME280;26392;42.696;23.350;2022-10-16T05:16:22;96120.19;;;6.69;100.00
40708;BME280;26392;42.696;23.350;2022-10-16T05:18:47;96116.44;;;6.77;100.00
40708;BME280;26392;42.696;23.350;2022-10-16T05:21:13;96122.69;;;6.84;100.00
40708;BME280;26392;42.696;23.350;2022-10-16T05:23:38;96133.94;;;6.87;100.00
40708;BME280;26392;42.696;23.350;2022-10-16T05:26:04;96127.88;;;6.85;100.00
40708;BME280;26392;42.696;23.350;2022-10-16T05:28:29;96123.72;;;6.89;100.00
40708;BME280;26392;42.696;23.350;2022-10-16T05:30:56;96123.66;;;7.03;100.00
40708;BME280;26392;42.696;23.350;2022-10-16T05:33:23;96121.56;;;7.11;100.00
40708;BME280;26392;42.696;23.350;2022-10-16T05:35:49;96126.09;;;7.24;100.00
40708;BME280;26392;42.696;23.350;2022-10-16T05:38:15;96129.41;;;7.33;100.00
40708;BME280;26392;42.696;23.350;2022-10-16T05:40:41;96137.34;;;7.34;100.00
40708;BME280;26392;42.696;23.350;2022-10-16T05:43:06;96131.88;;;7.41;100.00
40708;BME280;26392;42.696;23.350;2022-10-16T05:45:31;96134.97;;;7.45;100.00
40708;BME280;26392;42.696;23.350;2022-10-16T05:47:57;96139.00;;;7.35;100.00
40708;BME280;26392;42.696;23.350;2022-10-16T05:50:22;96140.25;;;7.39;100.00
40708;BME280;26392;42.696;23.350;2022-10-16T05:52:48;96144.78;;;7.46;100.00
40708;BME280;26392;42.696;23.350;2022-10-16T05:55:13;96148.97;;;7.42;100.00
40708;BME280;26392;42.696;23.350;2022-10-16T05:57:38;96151.09;;;7.39;100.00
40708;BME280;26392;42.696;23.350;2022-10-16T06:00:05;96154.44;;;7.35;100.00
40708;BME280;26392;42.696;23.350;2022-10-16T06:02:30;96152.94;;;7.39;100.00
40708;BME280;26392;42.696;23.350;2022-10-16T06:04:56;96156.47;;;7.46;100.00
40708;BME280;26392;42.696;23.350;2022-10-16T06:07:22;96168.13;;;7.47;100.00
40708;BME280;26392;42.696;23.350;2022-10-16T06:09:52;96166.28;;;7.40;100.00
40708;BME280;26392;42.696;23.350;2022-10-16T06:12:17;96166.44;;;7.52;100.00
40708;BME280;26392;42.696;23.350;2022-10-16T06:14:44;96173.41;;;7.80;100.00
40708;BME280;26392;42.696;23.350;2022-10-16T06:17:10;96178.59;;;7.88;99.13
40708;BME280;26392;42.696;23.350;2022-10-16T06:19:35;96172.47;;;7.99;99.46
40708;BME280;26392;42.696;23.350;2022-10-16T06:22:01;96180.81;;;8.04;98.25
40708;BME280;26392;42.696;23.350;2022-10-16T06:24:27;96180.88;;;8.23;98.24
40708;BME280;26392;42.696;23.350;2022-10-16T06:26:53;96179.72;;;8.37;97.26
40708;BME280;26392;42.696;23.350;2022-10-16T06:29:18;96187.44;;;8.47;96.29
40708;BME280;26392;42.696;23.350;2022-10-16T06:31:43;96183.66;;;8.48;95.65
40708;BME280;26392;42.696;23.350;2022-10-16T06:34:09;96180.22;;;8.27;95.55
40708;BME280;26392;42.696;23.350;2022-10-16T06:36:37;96186.00;;;8.44;96.17
40708;BME280;26392;42.696;23.350;2022-10-16T06:39:03;96182.72;;;8.61;95.58
40708;BME280;26392;42.696;23.350;2022-10-16T06:41:28;96188.59;;;8.83;94.93
40708;BME280;26392;42.696;23.350;2022-10-16T06:43:54;96199.34;;;8.96;93.42
40708;BME280;26392;42.696;23.350;2022-10-16T06:46:22;96196.03;;;9.12;93.00
40708;BME280;26392;42.696;23.350;2022-10-16T06:48:48;96198.47;;;9.21;91.70
40708;BME280;26392;42.696;23.350;2022-10-16T06:51:18;96202.97;;;9.33;91.87
40708;BME280;26392;42.696;23.350;2022-10-16T06:53:51;96203.47;;;9.24;91.47
40708;BME280;26392;42.696;23.350;2022-10-16T06:56:18;96207.75;;;9.13;91.05
40708;BME280;26392;42.696;23.350;2022-10-16T06:58:45;96208.06;;;9.23;90.76
40708;BME280;26392;42.696;23.350;2022-10-16T07:01:11;96212.94;;;9.39;90.38
40708;BME280;26392;42.696;23.350;2022-10-16T07:03:39;96209.00;;;9.35;90.29
40708;BME280;26392;42.696;23.350;2022-10-16T07:06:06;96218.41;;;9.58;90.70
40708;BME280;26392;42.696;23.350;2022-10-16T07:08:37;96218.97;;;9.60;90.11
40708;BME280;26392;42.696;23.350;2022-10-16T07:11:05;96212.63;;;9.84;88.63
40708;BME280;26392;42.696;23.350;2022-10-16T07:13:33;96222.59;;;9.91;88.33
40708;BME280;26392;42.696;23.350;2022-10-16T07:16:07;96218.50;;;10.00;88.56
40708;BME280;26392;42.696;23.350;2022-10-16T07:18:34;96227.75;;;10.11;87.30
40708;BME280;26392;42.696;23.350;2022-10-16T07:21:08;96217.94;;;10.09;86.92
40708;BME280;26392;42.696;23.350;2022-10-16T07:23:34;96220.09;;;10.19;87.09
40708;BME280;26392;42.696;23.350;2022-10-16T07:25:59;96216.56;;;10.37;86.19
40708;BME280;26392;42.696;23.350;2022-10-16T07:28:25;96215.28;;;10.51;86.15
40708;BME280;26392;42.696;23.350;2022-10-16T07:30:51;96219.94;;;10.63;85.59
40708;BME280;26392;42.696;23.350;2022-10-16T07:33:16;96215.28;;;10.51;85.11
40708;BME280;26392;42.696;23.350;2022-10-16T07:35:53;96218.53;;;10.72;84.91
40708;BME280;26392;42.696;23.350;2022-10-16T07:38:18;96220.22;;;10.73;85.38
40708;BME280;26392;42.696;23.350;2022-10-16T07:40:44;96222.94;;;10.85;84.19
40708;BME280;26392;42.696;23.350;2022-10-16T07:43:10;96220.72;;;10.93;84.18
40708;BME280;26392;42.696;23.350;2022-10-16T07:45:35;96220.84;;;10.98;84.04
40708;BME280;26392;42.696;23.350;2022-10-16T07:48:01;96221.19;;;11.14;84.28
40708;BME280;26392;42.696;23.350;2022-10-16T07:50:26;96216.69;;;11.31;83.22
40708;BME280;26392;42.696;23.350;2022-10-16T07:52:52;96217.28;;;11.45;82.88
40708;BME280;26392;42.696;23.350;2022-10-16T07:55:17;96215.59;;;11.56;82.72
40708;BME280;26392;42.696;23.350;2022-10-16T07:57:42;96222.84;;;11.74;82.59
40708;BME280;26392;42.696;23.350;2022-10-16T08:00:08;96226.97;;;11.88;80.77
40708;BME280;26392;42.696;23.350;2022-10-16T08:02:41;96227.06;;;12.05;80.52
40708;BME280;26392;42.696;23.350;2022-10-16T08:05:07;96221.94;;;12.08;79.33
40708;BME280;26392;42.696;23.350;2022-10-16T08:07:33;96235.53;;;12.20;79.63
40708;BME280;26392;42.696;23.350;2022-10-16T08:09:58;96234.78;;;12.37;78.65
40708;BME280;26392;42.696;23.350;2022-10-16T08:12:25;96224.88;;;12.47;78.64
40708;BME280;26392;42.696;23.350;2022-10-16T08:14:51;96224.94;;;12.36;78.11
40708;BME280;26392;42.696;23.350;2022-10-16T08:17:16;96220.06;;;12.54;77.53
40708;BME280;26392;42.696;23.350;2022-10-16T08:19:46;96221.91;;;12.66;77.01
40708;BME280;26392;42.696;23.350;2022-10-16T08:22:13;96220.19;;;12.76;76.48
40708;BME280;26392;42.696;23.350;2022-10-16T08:24:38;96220.88;;;12.84;77.00
40708;BME280;26392;42.696;23.350;2022-10-16T08:27:04;96211.50;;;12.96;75.40
40708;BME280;26392;42.696;23.350;2022-10-16T08:29:29;96217.72;;;13.09;74.91
40708;BME280;26392;42.696;23.350;2022-10-16T08:31:55;96208.28;;;13.16;74.72
40708;BME280;26392;42.696;23.350;2022-10-16T08:34:20;96215.03;;;13.26;74.25
40708;BME280;26392;42.696;23.350;2022-10-16T08:36:45;96199.81;;;13.35;73.50
40708;BME280;26392;42.696;23.350;2022-10-16T08:39:11;96213.69;;;13.45;73.02
40708;BME280;26392;42.696;23.350;2022-10-16T08:44:39;96208.91;;;13.57;71.51
40708;BME280;26392;42.696;23.350;2022-10-16T08:47:17;96216.63;;;13.60;71.74
40708;BME280;26392;42.696;23.350;2022-10-16T08:52:18;96215.97;;;13.92;67.80
40708;BME280;26392;42.696;23.350;2022-10-16T08:54:47;96214.00;;;14.09;68.95
40708;BME280;26392;42.696;23.350;2022-10-16T08:57:21;96220.72;;;14.24;66.43
40708;BME280;26392;42.696;23.350;2022-10-16T08:59:47;96216.00;;;14.41;64.16
40708;BME280;26392;42.696;23.350;2022-10-16T09:23:17;96207.09;;;15.10;56.10
40708;BME280;26392;42.696;23.350;2022-10-16T09:25:48;96203.91;;;14.91;56.12
40708;BME280;26392;42.696;23.350;2022-10-16T09:28:15;96199.19;;;14.87;55.76
40708;BME280;26392;42.696;23.350;2022-10-16T09:30:41;96203.13;;;14.96;56.22
40708;BME280;26392;42.696;23.350;2022-10-16T09:33:09;96204.53;;;14.98;54.32
40708;BME280;26392;42.696;23.350;2022-10-16T09:35:38;96204.72;;;14.92;54.55
40708;BME280;26392;42.696;23.350;2022-10-16T09:38:05;96198.09;;;15.20;55.01
40708;BME280;26392;42.696;23.350;2022-10-16T09:46:03;96199.28;;;15.34;53.64
40708;BME280;26392;42.696;23.350;2022-10-16T09:48:35;96200.22;;;15.50;53.59
40708;BME280;26392;42.696;23.350;2022-10-16T09:51:04;96195.34;;;15.62;53.29
40708;BME280;26392;42.696;23.350;2022-10-16T09:53:44;96191.59;;;15.74;52.88
40708;BME280;26392;42.696;23.350;2022-10-16T09:56:12;96186.09;;;15.74;54.23
40708;BME280;26392;42.696;23.350;2022-10-16T09:58:54;96182.97;;;15.55;53.46
40708;BME280;26392;42.696;23.350;2022-10-16T10:01:29;96180.91;;;15.72;53.65
40708;BME280;26392;42.696;23.350;2022-10-16T10:03:57;96183.59;;;15.67;53.60
40708;BME280;26392;42.696;23.350;2022-10-16T10:06:36;96178.47;;;15.81;53.64
40708;BME280;26392;42.696;23.350;2022-10-16T10:09:24;96174.31;;;15.78;53.92
40708;BME280;26392;42.696;23.350;2022-10-16T10:17:09;96181.59;;;16.10;52.55
40708;BME280;26392;42.696;23.350;2022-10-16T10:22:28;96177.00;;;16.31;53.28
40708;BME280;26392;42.696;23.350;2022-10-16T10:35:38;96166.06;;;16.41;52.61
40708;BME280;26392;42.696;23.350;2022-10-16T10:38:51;96146.81;;;16.56;52.00
40708;BME280;26392;42.696;23.350;2022-10-16T10:46:41;96150.66;;;16.66;48.85
40708;BME280;26392;42.696;23.350;2022-10-16T10:52:24;96133.34;;;16.75;49.40
40708;BME280;26392;42.696;23.350;2022-10-16T10:55:06;96141.59;;;16.50;50.69
40708;BME280;26392;42.696;23.350;2022-10-16T11:09:31;96133.06;;;16.62;50.63
40708;BME280;26392;42.696;23.350;2022-10-16T11:11:54;96125.38;;;16.74;50.37
40708;BME280;26392;42.696;23.350;2022-10-16T11:14:31;96127.31;;;16.94;50.59
40708;BME280;26392;42.696;23.350;2022-10-16T11:17:23;96118.25;;;16.98;48.76
40708;BME280;26392;42.696;23.350;2022-10-16T11:20:04;96115.50;;;17.09;48.44
40708;BME280;26392;42.696;23.350;2022-10-16T11:22:35;96112.16;;;17.22;48.63
40708;BME280;26392;42.696;23.350;2022-10-16T11:25:13;96115.44;;;17.29;48.40
40708;BME280;26392;42.696;23.350;2022-10-16T11:27:43;96111.84;;;17.39;47.99
40708;BME280;26392;42.696;23.350;2022-10-16T11:30:22;96112.41;;;17.36;47.94
40708;BME280;26392;42.696;23.350;2022-10-16T11:33:00;96110.75;;;17.45;46.75
40708;BME280;26392;42.696;23.350;2022-10-16T11:35:38;96109.88;;;17.50;46.49
40708;BME280;26392;42.696;23.350;2022-10-16T11:38:12;96115.13;;;17.56;46.30
40708;BME280;26392;42.696;23.350;2022-10-16T11:40:41;96113.75;;;17.59;46.19
40708;BME280;26392;42.696;23.350;2022-10-16T11:43:15;96114.00;;;17.62;46.17
40708;BME280;26392;42.696;23.350;2022-10-16T11:45:45;96110.41;;;17.62;46.31
40708;BME280;26392;42.696;23.350;2022-10-16T11:48:35;96111.50;;;17.66;47.36
40708;BME280;26392;42.696;23.350;2022-10-16T11:51:11;96112.06;;;17.68;46.51
40708;BME280;26392;42.696;23.350;2022-10-16T11:54:18;96110.63;;;17.81;46.04
40708;BME280;26392;42.696;23.350;2022-10-16T11:56:49;96110.91;;;17.74;45.11
40708;BME280;26392;42.696;23.350;2022-10-16T12:02:38;96112.31;;;17.82;45.41
40708;BME280;26392;42.696;23.350;2022-10-16T12:04:45;96100.97;;;17.83;45.49
40708;BME280;26392;42.696;23.350;2022-10-16T12:07:24;96107.31;;;17.84;46.24
40708;BME280;26392;42.696;23.350;2022-10-16T12:09:50;96108.13;;;17.89;45.85
40708;BME280;26392;42.696;23.350;2022-10-16T12:12:26;96105.63;;;17.98;45.91
40708;BME280;26392;42.696;23.350;2022-10-16T12:17:38;96104.03;;;17.87;46.40
40708;BME280;26392;42.696;23.350;2022-10-16T12:22:51;96102.09;;;17.87;46.10
40708;BME280;26392;42.696;23.350;2022-10-16T12:25:28;96110.91;;;17.84;46.95
40708;BME280;26392;42.696;23.350;2022-10-16T12:28:05;96097.69;;;17.76;46.17
40708;BME280;26392;42.696;23.350;2022-10-16T12:30:36;96102.88;;;17.93;45.63
40708;BME280;26392;42.696;23.350;2022-10-16T12:33:15;96102.66;;;17.79;44.48
40708;BME280;26392;42.696;23.350;2022-10-16T12:35:45;96105.41;;;17.84;45.23
40708;BME280;26392;42.696;23.350;2022-10-16T12:38:19;96096.28;;;17.89;44.65
40708;BME280;26392;42.696;23.350;2022-10-16T12:40:55;96105.56;;;18.03;45.22
40708;BME280;26392;42.696;23.350;2022-10-16T12:43:27;96109.69;;;18.06;45.49
40708;BME280;26392;42.696;23.350;2022-10-16T12:46:02;96103.06;;;18.12;45.03
40708;BME280;26392;42.696;23.350;2022-10-16T12:48:28;96103.06;;;18.12;45.55
40708;BME280;26392;42.696;23.350;2022-10-16T12:50:55;96100.50;;;18.26;44.94
40708;BME280;26392;42.696;23.350;2022-10-16T12:53:25;96103.91;;;18.13;45.07
40708;BME280;26392;42.696;23.350;2022-10-16T12:56:34;96111.13;;;17.98;44.35
40708;BME280;26392;42.696;23.350;2022-10-16T13:04:41;96116.59;;;18.03;44.05
40708;BME280;26392;42.696;23.350;2022-10-16T13:18:27;96110.56;;;18.01;42.96
40708;BME280;26392;42.696;23.350;2022-10-16T13:23:16;96109.50;;;17.92;42.47
40708;BME280;26392;42.696;23.350;2022-10-16T13:28:52;96114.41;;;18.00;42.56
40708;BME280;26392;42.696;23.350;2022-10-16T13:31:21;96108.31;;;18.08;43.09
40708;BME280;26392;42.696;23.350;2022-10-16T13:33:51;96114.94;;;18.07;41.82
40708;BME280;26392;42.696;23.350;2022-10-16T13:36:25;96107.81;;;18.01;42.06
40708;BME280;26392;42.696;23.350;2022-10-16T13:39:10;96112.47;;;18.06;41.46
40708;BME280;26392;42.696;23.350;2022-10-16T13:41:36;96117.16;;;18.05;40.65
40708;BME280;26392;42.696;23.350;2022-10-16T13:44:02;96113.03;;;17.98;39.27
40708;BME280;26392;42.696;23.350;2022-10-16T13:46:27;96112.28;;;17.87;40.28
40708;BME280;26392;42.696;23.350;2022-10-16T13:51:23;96117.53;;;17.78;40.14
40708;BME280;26392;42.696;23.350;2022-10-16T13:53:49;96122.22;;;17.73;40.09
40708;BME280;26392;42.696;23.350;2022-10-16T13:56:19;96118.91;;;17.76;40.68
40708;BME280;26392;42.696;23.350;2022-10-16T13:58:46;96115.03;;;17.77;40.33
40708;BME280;26392;42.696;23.350;2022-10-16T14:01:42;96120.56;;;17.72;40.08
40708;BME280;26392;42.696;23.350;2022-10-16T14:04:10;96119.22;;;17.64;40.33
40708;BME280;26392;42.696;23.350;2022-10-16T14:06:41;96129.72;;;17.62;40.07
40708;BME280;26392;42.696;23.350;2022-10-16T14:09:27;96130.53;;;17.57;40.36
40708;BME280;26392;42.696;23.350;2022-10-16T14:12:08;96129.19;;;17.50;40.02
40708;BME280;26392;42.696;23.350;2022-10-16T14:14:46;96126.16;;;17.51;40.07
40708;BME280;26392;42.696;23.350;2022-10-16T14:17:31;96135.00;;;17.43;39.88
40708;BME280;26392;42.696;23.350;2022-10-16T14:20:00;96125.63;;;17.39;39.79
40708;BME280;26392;42.696;23.350;2022-10-16T14:22:32;96128.09;;;17.40;39.96
40708;BME280;26392;42.696;23.350;2022-10-16T14:24:58;96135.81;;;17.33;40.58
40708;BME280;26392;42.696;23.350;2022-10-16T14:27:35;96144.91;;;17.39;40.81
40708;BME280;26392;42.696;23.350;2022-10-16T14:32:33;96143.81;;;17.19;40.86
40708;BME280;26392;42.696;23.350;2022-10-16T14:34:58;96139.44;;;17.18;40.49
40708;BME280;26392;42.696;23.350;2022-10-16T14:37:25;96147.41;;;17.15;40.94
40708;BME280;26392;42.696;23.350;2022-10-16T14:39:52;96146.59;;;17.04;41.25
40708;BME280;26392;42.696;23.350;2022-10-16T14:42:20;96149.06;;;16.90;41.26
40708;BME280;26392;42.696;23.350;2022-10-16T14:44:49;96143.84;;;16.94;41.44
40708;BME280;26392;42.696;23.350;2022-10-16T14:47:19;96149.63;;;16.82;41.81
40708;BME280;26392;42.696;23.350;2022-10-16T14:49:47;96145.50;;;16.90;42.06
40708;BME280;26392;42.696;23.350;2022-10-16T14:52:13;96153.44;;;16.76;42.31
40708;BME280;26392;42.696;23.350;2022-10-16T14:54:39;96152.63;;;16.75;42.41
40708;BME280;26392;42.696;23.350;2022-10-16T14:57:05;96157.84;;;16.67;43.15
40708;BME280;26392;42.696;23.350;2022-10-16T14:59:34;96152.88;;;16.53;43.13
40708;BME280;26392;42.696;23.350;2022-10-16T15:02:34;96154.78;;;16.48;43.55